Latest Weather Observations for Mount Baw Baw

IDV60801

Issued at 8:02 pm EST Saturday 4 July 2015 (issued every 30 minutes, with the page automatically refreshed every 10 minutes)

About weather observations | Map of weather stations | Latest weather observations for VIC | Other Formats
Station Details ID: 085291 Name: MOUNT BAW BAW Lat: -37.84 Lon: 146.27 Height: 1561.0 m
Data from the previous 72 hours. | See also: Recent months at Mount Baw Baw
Date/Time
EST
Temp
°C
App
Temp
°C
Dew
Point
Rel
Hum
%
Delta-T
°C
Wind Press
QNH
hPa
Press
MSL
hPa
Rain
since 9 am
mm
Dir
 
Spd
km/h
Gust
km/h
Spd
kts
Gust
kts
04/08:00pm 1.0 -3.7 0.9 99 0.0 WSW 15 22 - 12 - - 1.8
04/07:30pm 0.9 -4.2 0.8 99 0.0 WSW 17 26 - 14 - - 1.8
04/07:00pm 1.0 -3.7 0.9 99 0.0 WSW 15 24 - 13 - - 1.8
04/06:30pm 1.0 -4.1 0.9 99 0.0 WSW 17 24 - 13 - - 1.8
04/06:00pm 0.9 -4.2 0.8 99 0.0 WSW 17 22 - 12 - - 1.8
04/05:30pm 0.9 -4.2 0.8 99 0.0 WSW 17 30 - 16 - - 1.8
04/05:00pm 0.8 -4.7 0.7 99 0.0 WSW 19 30 - 16 - - 1.8
04/04:30pm 1.0 -4.5 0.9 99 0.0 WSW 19 32 - 17 - - 1.8
04/04:00pm 0.9 -4.2 0.8 99 0.0 WSW 17 32 - 17 - - 1.6
04/03:30pm 0.9 -4.2 0.8 99 0.0 WSW 17 26 - 14 - - 1.2
04/03:00pm 0.4 -5.1 0.3 99 0.0 WSW 19 32 - 17 - - 1.2
04/02:30pm 0.3 -4.9 0.2 99 0.0 W 17 28 - 15 - - 1.2
04/02:00pm 0.4 -5.1 0.3 99 0.0 W 19 30 - 16 - - 1.2
04/01:30pm 0.3 -5.3 0.2 99 0.0 W 19 32 - 17 - - 1.2
04/01:00pm 0.3 -4.9 0.2 99 0.0 WSW 17 30 - 16 - - 0.8
04/12:30pm 0.2 -1.8 0.1 99 0.0 CALM 0 6 - 3 - - 0.8
04/12:00pm 0.2 -4.6 0.1 99 0.0 WSW 15 22 - 12 - - 0.4
04/11:30am 0.1 -4.4 0.0 99 0.0 WSW 13 20 - 11 - - 0.0
04/11:00am 0.1 -1.9 0.0 99 0.0 CALM 0 0 - 0 - - 0.0
04/10:30am 0.0 -2.0 -0.1 99 0.0 CALM 0 0 - 0 - - 0.0
04/10:00am 0.0 -2.0 -0.1 99 0.0 CALM 0 0 - 0 - - 0.0
04/09:30am -0.1 -2.1 -0.2 99 0.0 CALM 0 0 - 0 - - 0.0
04/09:00am -0.1 -2.1 -0.2 99 0.0 CALM 0 0 - 0 - - 4.6
04/08:30am -0.1 -2.1 -0.2 99 0.0 CALM 0 0 - 0 - - 4.6
04/08:00am -0.1 -2.1 -0.2 99 0.0 CALM 0 0 - 0 - - 4.6
04/07:30am -0.1 -2.1 -0.2 99 0.0 CALM 0 0 - 0 - - 4.6
04/07:00am -0.1 -2.1 -0.2 99 0.0 CALM 0 0 - 0 - - 4.6
04/06:30am -0.2 -2.2 -0.3 99 0.0 CALM 0 0 - 0 - - 4.6
04/06:00am -0.3 -2.3 -0.4 99 0.0 CALM 0 0 - 0 - - 4.6
04/05:30am -0.6 -2.7 -0.7 99 0.0 CALM 0 0 - 0 - - 4.6
04/05:00am -0.9 -3.0 -1.0 99 0.0 CALM 0 0 - 0 - - 4.6
04/04:30am -1.5 -3.7 -1.6 99 0.0 CALM 0 0 - 0 - - 4.6
04/04:00am -2.1 -4.4 -2.2 99 -0.1 CALM 0 0 - 0 - - 4.6
04/03:30am -2.5 -4.8 -2.6 99 -0.1 CALM 0 0 - 0 - - 4.6
04/03:00am -2.5 -4.8 -2.6 99 -0.1 CALM 0 0 - 0 - - 4.6
04/02:30am -2.8 -5.2 -2.9 99 -0.1 CALM 0 0 - 0 - - 4.6
04/02:00am -3.6 -6.1 -3.7 99 -0.1 CALM 0 0 - 0 - - 4.6
04/01:30am -3.9 -6.4 -4.0 99 -0.1 CALM 0 0 - 0 - - 4.6
04/01:00am -4.1 -6.6 -4.4 98 -0.1 CALM 0 0 - 0 - - 4.6
04/12:30am -4.2 -6.8 -4.5 98 -0.1 CALM 0 0 - 0 - - 4.6
04/12:00am -4.2 -6.7 -4.3 99 -0.2 CALM 0 0 - 0 - - 4.6
 
Date/Time
EST
Temp
°C
App
Temp
°C
Dew
Point
Rel
Hum
%
Delta-T
°C
Wind Press
QNH
hPa
Press
MSL
hPa
Rain
since 9 am
mm
Dir
 
Spd
km/h
Gust
km/h
Spd
kts
Gust
kts
03/11:30pm -4.2 -6.7 -4.3 99 -0.2 CALM 0 0 - 0 - - 4.6
03/11:00pm -4.1 -6.6 -4.2 99 -0.1 CALM 0 0 - 0 - - 4.6
03/10:30pm -4.0 -6.5 -4.1 99 -0.1 CALM 0 0 - 0 - - 4.6
03/10:00pm -3.9 -6.4 -4.0 99 -0.1 CALM 0 0 - 0 - - 4.6
03/09:30pm -4.0 -6.5 -4.1 99 -0.1 CALM 0 0 - 0 - - 4.6
03/09:00pm -4.1 -6.6 -4.2 99 -0.1 CALM 0 0 - 0 - - 4.6
03/08:30pm -4.2 -6.7 -4.3 99 -0.2 CALM 0 0 - 0 - - 4.6
03/08:00pm -4.4 -7.0 -4.5 99 -0.2 CALM 0 0 - 0 - - 4.6
03/07:30pm -4.2 -6.7 -4.3 99 -0.2 CALM 0 0 - 0 - - 4.6
03/07:00pm -3.9 -6.4 -4.0 99 -0.1 CALM 0 0 - 0 - - 4.6
03/06:30pm -4.0 -6.5 -4.1 99 -0.1 CALM 0 0 - 0 - - 4.6
03/06:00pm -3.6 -6.1 -3.7 99 -0.1 CALM 0 0 - 0 - - 4.6
03/05:30pm -3.5 -6.0 -3.6 99 -0.1 CALM 0 0 - 0 - - 4.6
03/05:00pm -3.1 -5.5 -3.2 99 -0.1 CALM 0 0 - 0 - - 4.4
03/04:30pm -2.7 -5.1 -2.8 99 -0.1 CALM 0 0 - 0 - - 4.4
03/04:00pm -2.7 -5.1 -2.8 99 -0.1 CALM 0 0 - 0 - - 4.4
03/03:30pm -2.8 -5.2 -2.9 99 -0.1 CALM 0 0 - 0 - - 4.4
03/03:00pm -2.5 -4.8 -2.6 99 -0.1 CALM 0 0 - 0 - - 4.4
03/02:30pm -1.9 -4.2 -2.0 99 -0.1 CALM 0 0 - 0 - - 4.4
03/02:00pm -1.9 -4.2 -2.0 99 -0.1 CALM 0 0 - 0 - - 4.4
03/01:30pm -1.9 -4.2 -2.0 99 -0.1 CALM 0 0 - 0 - - 4.4
03/01:00pm -1.5 -3.7 -1.6 99 0.0 CALM 0 0 - 0 - - 4.4
03/12:30pm -1.8 -4.0 -1.9 99 -0.1 CALM 0 0 - 0 - - 4.4
03/12:00pm -2.0 -4.3 -2.1 99 -0.1 CALM 0 0 - 0 - - 4.2
03/11:30am -2.3 -4.6 -2.4 99 -0.1 CALM 0 0 - 0 - - 3.0
03/11:00am -2.6 -4.9 -2.7 99 -0.1 CALM 0 0 - 0 - - 1.2
03/10:30am -2.9 -5.3 -3.0 99 -0.1 CALM 0 0 - 0 - - 0.6
03/10:00am -2.8 -5.2 -2.9 99 -0.1 CALM 0 0 - 0 - - 0.4
03/09:30am -3.0 -5.4 -3.1 99 -0.1 CALM 0 0 - 0 - - 0.2
03/09:00am -3.1 -5.5 -3.2 99 -0.1 CALM 0 0 - 0 - - 13.0
03/08:30am -3.3 -5.7 -3.4 99 -0.1 CALM 0 0 - 0 - - 12.8
03/08:00am -3.5 -6.0 -3.6 99 -0.1 CALM 0 0 - 0 - - 12.6
03/07:30am -3.1 -5.5 -3.2 99 -0.1 CALM 0 0 - 0 - - 12.4
03/07:00am -3.3 -5.7 -3.4 99 -0.1 CALM 0 0 - 0 - - 12.0
03/06:30am -3.4 -5.8 -3.5 99 -0.1 CALM 0 0 - 0 - - 11.6
03/06:00am -3.2 -5.6 -3.3 99 -0.1 CALM 0 0 - 0 - - 11.0
03/05:30am -3.2 -5.6 -3.3 99 -0.1 CALM 0 0 - 0 - - 11.0
03/05:00am -3.2 -5.6 -3.3 99 -0.1 CALM 0 0 - 0 - - 10.8
03/04:30am -3.4 -5.8 -3.5 99 -0.1 CALM 0 0 - 0 - - 10.8
03/04:00am -3.3 -5.7 -3.4 99 -0.1 CALM 0 0 - 0 - - 10.8
03/03:30am -3.2 -5.6 -3.3 99 -0.1 CALM 0 0 - 0 - - 10.8
03/03:00am -3.2 -5.6 -3.3 99 -0.1 CALM 0 0 - 0 - - 10.4
03/02:30am -3.4 -5.8 -3.5 99 -0.1 CALM 0 0 - 0 - - 10.4
03/02:00am -3.4 -5.8 -3.5 99 -0.1 CALM 0 0 - 0 - - 10.4
03/01:30am -3.3 -5.7 -3.4 99 -0.1 CALM 0 0 - 0 - - 10.4
03/01:00am -3.2 -5.6 -3.3 99 -0.1 CALM 0 0 - 0 - - 10.2
03/12:30am -3.0 -5.4 -3.1 99 -0.1 CALM 0 0 - 0 - - 10.2
03/12:00am -3.2 -5.6 -3.3 99 -0.1 CALM 0 0 - 0 - - 10.0
 
Date/Time
EST
Temp
°C
App
Temp
°C
Dew
Point
Rel
Hum
%
Delta-T
°C
Wind Press
QNH
hPa
Press
MSL
hPa
Rain
since 9 am
mm
Dir
 
Spd
km/h
Gust
km/h
Spd
kts
Gust
kts
02/11:30pm -2.8 -5.2 -2.9 99 -0.1 CALM 0 0 - 0 - - 9.8
02/11:00pm -2.9 -5.3 -3.0 99 -0.1 CALM 0 0 - 0 - - 9.4
02/10:30pm -2.8 -5.2 -2.9 99 -0.1 CALM 0 0 - 0 - - 9.4
02/10:00pm -2.8 -5.2 -2.9 99 -0.1 CALM 0 0 - 0 - - 9.2
02/09:30pm -2.7 -5.1 -2.8 99 -0.1 CALM 0 0 - 0 - - 8.8
02/09:00pm -2.5 -4.8 -2.6 99 -0.1 CALM 0 0 - 0 - - 8.4
02/08:30pm -2.4 -4.7 -2.5 99 -0.1 CALM 0 0 - 0 - - 8.2
02/08:00pm -2.5 -4.8 -2.6 99 -0.1 CALM 0 0 - 0 - - 8.0
02/07:30pm -2.7 -5.1 -2.8 99 -0.1 CALM 0 0 - 0 - - 7.6
02/07:00pm -2.9 -5.3 -3.0 99 -0.1 CALM 0 0 - 0 - - 7.0
02/06:30pm -2.9 -5.3 -3.0 99 -0.1 CALM 0 0 - 0 - - 6.6
02/06:00pm -2.7 -5.1 -2.8 99 -0.1 CALM 0 0 - 0 - - 6.0
02/05:30pm -2.8 -5.2 -2.9 99 -0.1 CALM 0 0 - 0 - - 5.8
02/05:00pm -3.1 -9.1 -3.2 99 -0.1 SW 19 32 - 17 - - 5.4
02/04:30pm -2.6 -8.7 -2.7 99 -0.1 SW 20 37 - 20 - - 5.0
02/04:00pm -2.7 -8.7 -2.8 99 -0.1 SW 19 32 - 17 - - 4.6
02/03:30pm -3.0 -9.6 -3.1 99 -0.1 SW 22 44 - 24 - - 4.2
02/03:00pm -2.7 -7.9 -2.8 99 -0.1 SW 15 30 - 16 - - 3.8
02/02:30pm -2.7 -8.9 -2.8 99 -0.1 SW 20 41 - 22 - - 3.2
02/02:00pm -3.0 -9.6 -3.1 99 -0.1 SW 22 44 - 24 - - 2.6
02/01:30pm -3.2 -9.8 -3.3 99 -0.1 SW 22 44 - 24 - - 2.2
02/01:00pm -3.0 -10.3 -3.1 99 -0.1 SW 26 50 - 27 - - 1.8
02/12:30pm -3.2 -10.9 -3.3 99 -0.1 SW 28 61 - 33 - - 1.2
02/12:04pm -3.4 -11.2 -3.5 99 -0.1 SW 28 46 - 25 - - 1.2
02/12:00pm -3.4 -10.8 -3.5 99 -0.1 SW 26 46 - 25 - - 1.0
02/11:48am -3.6 -11.4 -3.7 99 -0.1 SW 28 46 - 25 - - 1.0
02/11:30am -3.6 -10.6 -3.7 99 -0.1 SW 24 44 - 24 - - 0.8
02/11:00am -4.1 -11.9 -4.2 99 -0.1 SW 28 56 - 30 - - 0.4
02/10:30am -3.1 -11.6 -3.2 99 -0.1 SW 32 56 - 30 - - 0.2
02/10:00am -1.9 -9.5 -2.0 99 -0.1 SW 28 57 - 31 - - 0.2
02/09:30am -1.9 -9.9 -2.0 99 -0.1 WSW 30 63 - 34 - - 0.0
02/09:00am -2.0 -9.6 -2.1 99 -0.1 WSW 28 56 - 30 - - 1.8
02/08:30am -1.8 -9.4 -1.9 99 -0.1 WSW 28 50 - 27 - - 1.8
02/08:08am -1.7 -9.3 -1.8 99 0.0 WSW 28 54 - 29 - - 1.8
02/08:00am -1.6 -8.8 -1.7 99 0.0 WSW 26 48 - 26 - - 1.8
02/07:30am -1.2 -9.6 -1.3 99 0.0 SW 33 52 - 28 - - 1.8
02/07:00am -0.6 -9.0 -0.7 99 0.0 SW 33 67 - 36 - - 1.8
02/06:30am -0.1 -8.2 -0.2 99 0.0 WSW 32 52 - 28 - - 1.4
02/06:00am 0.1 -8.0 0.0 99 0.0 WSW 32 50 - 27 - - 0.8
02/05:30am 0.5 -7.1 0.4 99 0.0 WSW 30 54 - 29 - - 0.6
02/05:04am 0.8 -6.8 0.7 99 0.0 WSW 30 48 - 26 - - 0.4
02/05:00am 0.7 -7.3 0.6 99 0.0 WSW 32 48 - 26 - - 0.4
02/04:30am 0.8 -7.2 0.7 99 0.0 WSW 32 61 - 33 - - 0.2
02/04:00am 0.8 -7.7 0.7 99 0.0 WSW 35 57 - 31 - - 0.2
02/03:30am 0.6 -7.0 0.5 99 0.0 WSW 30 52 - 28 - - 0.2
02/03:00am 0.6 -6.6 0.5 99 0.0 W 28 52 - 28 - - 0.2
02/02:30am 0.6 -6.6 0.5 99 0.0 W 28 61 - 33 - - 0.2
02/02:00am 0.3 -7.7 0.2 99 0.0 WSW 32 50 - 27 - - 0.2
02/01:30am 0.1 -7.2 0.0 99 0.0 W 28 50 - 27 - - 0.2
02/01:15am 0.0 -7.3 -0.1 99 0.0 W 28 48 - 26 - - 0.2
02/01:00am -0.1 -7.1 -0.2 99 0.0 W 26 41 - 22 - - 0.2
02/12:30am -0.2 -7.5 -0.3 99 0.0 W 28 46 - 25 - - 0.2
02/12:00am -0.2 -7.9 -0.3 99 0.0 W 30 50 - 27 - - 0.2
 
Date/Time
EST
Temp
°C
App
Temp
°C
Dew
Point
Rel
Hum
%
Delta-T
°C
Wind Press
QNH
hPa
Press
MSL
hPa
Rain
since 9 am
mm
Dir
 
Spd
km/h
Gust
km/h
Spd
kts
Gust
kts
01/11:30pm -0.1 -8.2 -0.2 99 0.0 W 32 52 - 28 - - 0.2
01/11:00pm -0.6 -8.4 -0.7 99 0.0 W 30 48 - 26 - - 0.2
01/10:30pm -0.1 -7.8 -0.2 99 0.0 W 30 52 - 28 - - 0.2
01/10:00pm -0.2 -8.5 -0.3 99 0.0 W 33 54 - 29 - - 0.2
01/09:30pm -0.4 -8.5 -0.5 99 0.0 W 32 52 - 28 - - 0.2
01/09:00pm -0.4 -8.2 -0.5 99 0.0 W 30 59 - 32 - - 0.2
01/08:30pm -0.4 -8.5 -0.5 99 0.0 W 32 50 - 27 - - 0.2

Other Formats:

Comma delimited format used in spreadsheet applications
http://www.bom.gov.au/fwo/IDV60801/IDV60801.95901.axf

JavaScript Object Notation format (JSON) in row-major order
http://www.bom.gov.au/fwo/IDV60801/IDV60801.95901.json